Terminal Aerodrome Forecast
Issued by NWS

Home | Current Version | Previous Version | Text Only | Print | Product List | Glossary On
Versions: 1 2 3 4 5 6 7 8 9 10 11 12 13 14 15
000
FTUS45 KRIW 182300
TAFCPR
TAF
KCPR 182328Z 1900/1924 07008KT P6SM -SHRA SCT015 OVC035
     FM190100 01015G25KT P6SM -SHRASN SCT015 OVC030
     FM190500 03006KT P6SM VCSH SCT020 BKN035
     FM190800 36015KT P6SM SCT035 BKN100
     FM191300 01008KT P6SM FEW035 SCT100=

USA.gov is the U.S. government's official web portal to all federal, state and local government web resources and services.